sensor_id;sensor_type;location;lat;lon;timestamp;pressure;altitude;pressure_sealevel;temperature;humidity
76819;BME280;65772;51.096;17.006;2023-08-06T00:00:53;99190.81;;;18.33;72.33
76819;BME280;65772;51.096;17.006;2023-08-06T00:03:24;99192.21;;;18.33;72.28
76819;BME280;65772;51.096;17.006;2023-08-06T00:05:55;99194.99;;;18.32;72.35
76819;BME280;65772;51.096;17.006;2023-08-06T00:08:25;99188.09;;;18.31;72.18
76819;BME280;65772;51.096;17.006;2023-08-06T00:10:56;99181.36;;;18.31;72.24
76819;BME280;65772;51.096;17.006;2023-08-06T00:13:26;99175.98;;;18.32;72.14
76819;BME280;65772;51.096;17.006;2023-08-06T00:15:56;99166.46;;;18.33;72.16
76819;BME280;65772;51.096;17.006;2023-08-06T00:18:38;99169.41;;;18.32;72.18
76819;BME280;65772;51.096;17.006;2023-08-06T00:21:09;99173.05;;;18.31;72.21
76819;BME280;65772;51.096;17.006;2023-08-06T00:23:42;99167.56;;;18.29;72.09
76819;BME280;65772;51.096;17.006;2023-08-06T00:26:12;99169.82;;;18.28;72.17
76819;BME280;65772;51.096;17.006;2023-08-06T00:28:43;99160.69;;;18.27;72.05
76819;BME280;65772;51.096;17.006;2023-08-06T00:31:14;99152.95;;;18.26;72.13
76819;BME280;65772;51.096;17.006;2023-08-06T00:33:44;99136.20;;;18.25;72.20
76819;BME280;65772;51.096;17.006;2023-08-06T00:36:15;99133.27;;;18.24;72.19
76819;BME280;65772;51.096;17.006;2023-08-06T00:38:46;99129.14;;;18.23;72.29
76819;BME280;65772;51.096;17.006;2023-08-06T00:41:16;99124.13;;;18.23;72.29
76819;BME280;65772;51.096;17.006;2023-08-06T00:43:47;99119.86;;;18.22;72.30
76819;BME280;65772;51.096;17.006;2023-08-06T00:46:17;99110.89;;;18.21;72.31
76819;BME280;65772;51.096;17.006;2023-08-06T00:48:49;99098.29;;;18.21;72.18
76819;BME280;65772;51.096;17.006;2023-08-06T00:51:21;99088.59;;;18.22;72.35
76819;BME280;65772;51.096;17.006;2023-08-06T00:53:53;99080.47;;;18.22;72.24
76819;BME280;65772;51.096;17.006;2023-08-06T00:56:25;99078.77;;;18.21;72.36
76819;BME280;65772;51.096;17.006;2023-08-06T00:58:56;99068.95;;;18.20;72.33
76819;BME280;65772;51.096;17.006;2023-08-06T01:01:27;99062.56;;;18.20;72.35
76819;BME280;65772;51.096;17.006;2023-08-06T01:03:58;99055.66;;;18.19;72.32
76819;BME280;65772;51.096;17.006;2023-08-06T01:06:41;99048.25;;;18.18;72.36
76819;BME280;65772;51.096;17.006;2023-08-06T01:09:25;99039.11;;;18.17;72.30
76819;BME280;65772;51.096;17.006;2023-08-06T01:12:06;99027.39;;;18.16;72.32
76819;BME280;65772;51.096;17.006;2023-08-06T01:14:46;99024.64;;;18.16;72.25
76819;BME280;65772;51.096;17.006;2023-08-06T01:17:19;99019.46;;;18.15;72.28
76819;BME280;65772;51.096;17.006;2023-08-06T01:19:49;99015.33;;;18.15;72.43
76819;BME280;65772;51.096;17.006;2023-08-06T01:22:20;99013.61;;;18.14;72.35
76819;BME280;65772;51.096;17.006;2023-08-06T01:24:52;99010.17;;;18.14;72.39
76819;BME280;65772;51.096;17.006;2023-08-06T01:27:26;99002.93;;;18.13;72.30
76819;BME280;65772;51.096;17.006;2023-08-06T01:30:04;98997.25;;;18.12;72.33
76819;BME280;65772;51.096;17.006;2023-08-06T01:32:39;98996.63;;;18.10;72.28
76819;BME280;65772;51.096;17.006;2023-08-06T01:35:13;98998.05;;;18.08;72.33
76819;BME280;65772;51.096;17.006;2023-08-06T01:37:46;98998.90;;;18.09;72.51
76819;BME280;65772;51.096;17.006;2023-08-06T01:40:17;98998.02;;;18.09;72.44
76819;BME280;65772;51.096;17.006;2023-08-06T01:42:48;98994.75;;;18.09;72.49
76819;BME280;65772;51.096;17.006;2023-08-06T01:45:18;98989.39;;;18.09;72.52
76819;BME280;65772;51.096;17.006;2023-08-06T01:47:50;98982.83;;;18.09;72.65
76819;BME280;65772;51.096;17.006;2023-08-06T01:50:21;98978.34;;;18.09;72.42
76819;BME280;65772;51.096;17.006;2023-08-06T01:52:53;98966.41;;;18.09;72.52
76819;BME280;65772;51.096;17.006;2023-08-06T01:55:23;98971.31;;;18.07;72.48
76819;BME280;65772;51.096;17.006;2023-08-06T01:57:54;98979.46;;;18.05;72.53
76819;BME280;65772;51.096;17.006;2023-08-06T02:00:25;98976.73;;;18.04;72.61
76819;BME280;65772;51.096;17.006;2023-08-06T02:02:57;98974.02;;;18.01;72.53
76819;BME280;65772;51.096;17.006;2023-08-06T02:05:27;98979.27;;;17.99;72.83
76819;BME280;65772;51.096;17.006;2023-08-06T02:07:58;98981.50;;;18.00;73.09
76819;BME280;65772;51.096;17.006;2023-08-06T02:10:28;98978.38;;;18.00;73.04
76819;BME280;65772;51.096;17.006;2023-08-06T02:12:59;98976.83;;;18.01;73.09
76819;BME280;65772;51.096;17.006;2023-08-06T02:15:30;98961.94;;;18.01;73.21
76819;BME280;65772;51.096;17.006;2023-08-06T02:18:00;98934.52;;;18.00;73.17
76819;BME280;65772;51.096;17.006;2023-08-06T02:20:31;98915.06;;;17.97;73.14
76819;BME280;65772;51.096;17.006;2023-08-06T02:23:02;98906.16;;;17.94;73.18
76819;BME280;65772;51.096;17.006;2023-08-06T02:25:33;98897.80;;;17.90;73.12
76819;BME280;65772;51.096;17.006;2023-08-06T02:28:04;98894.34;;;17.82;73.04
76819;BME280;65772;51.096;17.006;2023-08-06T02:30:34;98891.77;;;17.75;73.28
76819;BME280;65772;51.096;17.006;2023-08-06T02:33:05;98879.48;;;17.68;73.18
76819;BME280;65772;51.096;17.006;2023-08-06T02:35:35;98859.08;;;17.62;73.36
76819;BME280;65772;51.096;17.006;2023-08-06T02:38:06;98845.84;;;17.60;73.53
76819;BME280;65772;51.096;17.006;2023-08-06T02:40:36;98850.59;;;17.56;73.61
76819;BME280;65772;51.096;17.006;2023-08-06T02:43:07;98849.08;;;17.53;73.57
76819;BME280;65772;51.096;17.006;2023-08-06T02:45:38;98845.86;;;17.50;73.71
76819;BME280;65772;51.096;17.006;2023-08-06T02:48:08;98842.28;;;17.48;73.84
76819;BME280;65772;51.096;17.006;2023-08-06T02:50:43;98843.03;;;17.47;73.90
76819;BME280;65772;51.096;17.006;2023-08-06T02:53:13;98849.27;;;17.45;73.93
76819;BME280;65772;51.096;17.006;2023-08-06T02:55:48;98855.34;;;17.44;73.98
76819;BME280;65772;51.096;17.006;2023-08-06T02:58:21;98852.43;;;17.42;73.98
76819;BME280;65772;51.096;17.006;2023-08-06T03:01:05;98845.36;;;17.42;74.05
76819;BME280;65772;51.096;17.006;2023-08-06T03:03:58;98850.10;;;17.39;74.06
76819;BME280;65772;51.096;17.006;2023-08-06T03:06:33;98853.80;;;17.36;74.19
76819;BME280;65772;51.096;17.006;2023-08-06T03:09:04;98854.08;;;17.31;74.05
76819;BME280;65772;51.096;17.006;2023-08-06T03:11:34;98862.61;;;17.27;74.16
76819;BME280;65772;51.096;17.006;2023-08-06T03:14:08;98863.08;;;17.22;74.31
76819;BME280;65772;51.096;17.006;2023-08-06T03:16:39;98848.13;;;17.19;74.50
76819;BME280;65772;51.096;17.006;2023-08-06T03:19:09;98823.30;;;17.18;74.41
76819;BME280;65772;51.096;17.006;2023-08-06T03:21:40;98815.86;;;17.19;74.58
76819;BME280;65772;51.096;17.006;2023-08-06T03:24:11;98829.44;;;17.22;74.64
76819;BME280;65772;51.096;17.006;2023-08-06T03:26:44;98836.52;;;17.21;74.46
76819;BME280;65772;51.096;17.006;2023-08-06T03:29:14;98835.16;;;17.20;74.60
76819;BME280;65772;51.096;17.006;2023-08-06T03:31:45;98831.40;;;17.18;74.64
76819;BME280;65772;51.096;17.006;2023-08-06T03:34:16;98823.33;;;17.17;74.49
76819;BME280;65772;51.096;17.006;2023-08-06T03:36:47;98817.42;;;17.18;74.61
76819;BME280;65772;51.096;17.006;2023-08-06T03:39:18;98813.59;;;17.20;74.67
76819;BME280;65772;51.096;17.006;2023-08-06T03:41:48;98813.73;;;17.22;74.59
76819;BME280;65772;51.096;17.006;2023-08-06T03:44:20;98812.66;;;17.24;74.56
76819;BME280;65772;51.096;17.006;2023-08-06T03:46:50;98812.30;;;17.25;74.56
76819;BME280;65772;51.096;17.006;2023-08-06T03:49:21;98810.61;;;17.24;74.37
76819;BME280;65772;51.096;17.006;2023-08-06T03:51:51;98817.73;;;17.21;74.45
76819;BME280;65772;51.096;17.006;2023-08-06T03:54:22;98827.77;;;17.19;74.41
76819;BME280;65772;51.096;17.006;2023-08-06T03:56:53;98833.29;;;17.19;74.37
76819;BME280;65772;51.096;17.006;2023-08-06T03:59:23;98835.17;;;17.19;74.45
76819;BME280;65772;51.096;17.006;2023-08-06T04:01:54;98831.70;;;17.20;74.25
76819;BME280;65772;51.096;17.006;2023-08-06T04:04:25;98829.11;;;17.21;74.32
76819;BME280;65772;51.096;17.006;2023-08-06T04:06:55;98822.91;;;17.20;74.15
76819;BME280;65772;51.096;17.006;2023-08-06T04:09:27;98815.02;;;17.19;74.31
76819;BME280;65772;51.096;17.006;2023-08-06T04:11:58;98805.74;;;17.17;74.31
76819;BME280;65772;51.096;17.006;2023-08-06T04:14:32;98795.95;;;17.15;74.31
76819;BME280;65772;51.096;17.006;2023-08-06T04:17:03;98794.58;;;17.15;74.46
76819;BME280;65772;51.096;17.006;2023-08-06T04:19:33;98806.52;;;17.13;74.24
76819;BME280;65772;51.096;17.006;2023-08-06T04:22:05;98814.29;;;17.12;74.28
76819;BME280;65772;51.096;17.006;2023-08-06T04:24:35;98820.01;;;17.12;74.27
76819;BME280;65772;51.096;17.006;2023-08-06T04:27:07;98830.52;;;17.11;74.24
76819;BME280;65772;51.096;17.006;2023-08-06T04:29:38;98839.70;;;17.09;74.25
76819;BME280;65772;51.096;17.006;2023-08-06T04:32:10;98842.80;;;17.10;74.28
76819;BME280;65772;51.096;17.006;2023-08-06T04:34:45;98843.51;;;17.09;74.34
76819;BME280;65772;51.096;17.006;2023-08-06T04:37:16;98840.92;;;17.08;74.40
76819;BME280;65772;51.096;17.006;2023-08-06T04:39:46;98837.48;;;17.08;74.37
76819;BME280;65772;51.096;17.006;2023-08-06T04:42:17;98826.80;;;17.08;74.54
76819;BME280;65772;51.096;17.006;2023-08-06T04:44:48;98819.72;;;17.08;74.50
76819;BME280;65772;51.096;17.006;2023-08-06T04:47:19;98809.41;;;17.07;74.55
76819;BME280;65772;51.096;17.006;2023-08-06T04:49:49;98802.02;;;17.06;74.55
76819;BME280;65772;51.096;17.006;2023-08-06T04:52:20;98792.59;;;17.04;74.68
76819;BME280;65772;51.096;17.006;2023-08-06T04:54:50;98780.69;;;17.04;74.64
76819;BME280;65772;51.096;17.006;2023-08-06T04:57:21;98772.28;;;17.02;74.79
76819;BME280;65772;51.096;17.006;2023-08-06T04:59:52;98770.44;;;17.00;74.75
76819;BME280;65772;51.096;17.006;2023-08-06T05:02:22;98795.61;;;17.00;74.88
76819;BME280;65772;51.096;17.006;2023-08-06T05:04:53;98812.36;;;16.98;74.93
76819;BME280;65772;51.096;17.006;2023-08-06T05:07:24;98807.42;;;16.95;74.79
76819;BME280;65772;51.096;17.006;2023-08-06T05:09:54;98798.84;;;16.94;75.04
76819;BME280;65772;51.096;17.006;2023-08-06T05:12:25;98789.06;;;16.92;75.15
76819;BME280;65772;51.096;17.006;2023-08-06T05:14:55;98785.48;;;16.90;75.04
76819;BME280;65772;51.096;17.006;2023-08-06T05:17:26;98776.01;;;16.89;75.15
76819;BME280;65772;51.096;17.006;2023-08-06T05:19:57;98770.73;;;16.86;75.17
76819;BME280;65772;51.096;17.006;2023-08-06T05:22:27;98767.67;;;16.84;75.24
76819;BME280;65772;51.096;17.006;2023-08-06T05:24:58;98763.36;;;16.83;75.19
76819;BME280;65772;51.096;17.006;2023-08-06T05:27:28;98758.90;;;16.83;75.32
76819;BME280;65772;51.096;17.006;2023-08-06T05:29:59;98760.66;;;16.82;75.28
76819;BME280;65772;51.096;17.006;2023-08-06T05:32:29;98759.13;;;16.81;75.19
76819;BME280;65772;51.096;17.006;2023-08-06T05:35:00;98748.77;;;16.82;75.33
76819;BME280;65772;51.096;17.006;2023-08-06T05:37:30;98742.02;;;16.83;75.35
76819;BME280;65772;51.096;17.006;2023-08-06T05:40:01;98747.65;;;16.84;75.29
76819;BME280;65772;51.096;17.006;2023-08-06T05:42:33;98752.45;;;16.87;75.43
76819;BME280;65772;51.096;17.006;2023-08-06T05:45:04;98761.73;;;16.87;75.41
76819;BME280;65772;51.096;17.006;2023-08-06T05:47:34;98771.26;;;16.85;75.38
76819;BME280;65772;51.096;17.006;2023-08-06T05:50:07;98770.39;;;16.85;75.40
76819;BME280;65772;51.096;17.006;2023-08-06T05:52:38;98750.71;;;16.87;75.33
76819;BME280;65772;51.096;17.006;2023-08-06T05:55:09;98717.81;;;16.86;75.30
76819;BME280;65772;51.096;17.006;2023-08-06T05:57:40;98716.45;;;16.84;75.33
76819;BME280;65772;51.096;17.006;2023-08-06T06:00:12;98733.07;;;16.83;75.47
76819;BME280;65772;51.096;17.006;2023-08-06T06:02:42;98744.63;;;16.82;75.69
76819;BME280;65772;51.096;17.006;2023-08-06T06:05:13;98744.61;;;16.82;75.58
76819;BME280;65772;51.096;17.006;2023-08-06T06:07:44;98743.55;;;16.84;75.50
76819;BME280;65772;51.096;17.006;2023-08-06T06:10:14;98740.06;;;16.85;75.55
76819;BME280;65772;51.096;17.006;2023-08-06T06:12:45;98740.80;;;16.83;75.53
76819;BME280;65772;51.096;17.006;2023-08-06T06:15:15;98751.73;;;16.80;75.49
76819;BME280;65772;51.096;17.006;2023-08-06T06:17:46;98758.18;;;16.76;75.50
76819;BME280;65772;51.096;17.006;2023-08-06T06:20:17;98766.11;;;16.76;75.55
76819;BME280;65772;51.096;17.006;2023-08-06T06:22:47;98771.09;;;16.77;75.69
76819;BME280;65772;51.096;17.006;2023-08-06T06:25:24;98769.34;;;16.78;75.62
76819;BME280;65772;51.096;17.006;2023-08-06T06:27:54;98765.20;;;16.78;75.72
76819;BME280;65772;51.096;17.006;2023-08-06T06:30:25;98764.02;;;16.78;75.70
76819;BME280;65772;51.096;17.006;2023-08-06T06:32:55;98767.48;;;16.76;75.72
76819;BME280;65772;51.096;17.006;2023-08-06T06:35:26;98767.66;;;16.76;75.81
76819;BME280;65772;51.096;17.006;2023-08-06T06:37:56;98771.84;;;16.74;75.67
76819;BME280;65772;51.096;17.006;2023-08-06T06:40:27;98773.80;;;16.71;75.66
76819;BME280;65772;51.096;17.006;2023-08-06T06:42:57;98774.16;;;16.71;75.72
76819;BME280;65772;51.096;17.006;2023-08-06T06:45:28;98764.54;;;16.69;75.72
76819;BME280;65772;51.096;17.006;2023-08-06T06:47:58;98745.77;;;16.68;75.82
76819;BME280;65772;51.096;17.006;2023-08-06T06:50:29;98732.56;;;16.65;75.82
76819;BME280;65772;51.096;17.006;2023-08-06T06:52:59;98733.15;;;16.62;75.97
76819;BME280;65772;51.096;17.006;2023-08-06T06:55:30;98734.56;;;16.60;76.02
76819;BME280;65772;51.096;17.006;2023-08-06T06:58:00;98733.75;;;16.57;76.13
76819;BME280;65772;51.096;17.006;2023-08-06T07:00:31;98730.83;;;16.57;76.27
76819;BME280;65772;51.096;17.006;2023-08-06T07:03:01;98728.48;;;16.54;76.35
76819;BME280;65772;51.096;17.006;2023-08-06T07:05:32;98724.92;;;16.51;76.37
76819;BME280;65772;51.096;17.006;2023-08-06T07:08:02;98721.15;;;16.51;76.51
76819;BME280;65772;51.096;17.006;2023-08-06T07:10:33;98720.30;;;16.50;76.54
76819;BME280;65772;51.096;17.006;2023-08-06T07:13:03;98717.14;;;16.52;76.60
76819;BME280;65772;51.096;17.006;2023-08-06T07:15:34;98716.10;;;16.53;76.77
76819;BME280;65772;51.096;17.006;2023-08-06T07:18:05;98721.22;;;16.54;76.72
76819;BME280;65772;51.096;17.006;2023-08-06T07:20:35;98722.91;;;16.56;76.81
76819;BME280;65772;51.096;17.006;2023-08-06T07:23:06;98725.27;;;16.58;76.75
76819;BME280;65772;51.096;17.006;2023-08-06T07:25:37;98723.18;;;16.60;76.77
76819;BME280;65772;51.096;17.006;2023-08-06T07:28:07;98717.84;;;16.62;76.74
76819;BME280;65772;51.096;17.006;2023-08-06T07:30:41;98716.73;;;16.64;76.72
76819;BME280;65772;51.096;17.006;2023-08-06T07:33:12;98725.14;;;16.66;76.76
76819;BME280;65772;51.096;17.006;2023-08-06T07:35:42;98720.66;;;16.67;76.66
76819;BME280;65772;51.096;17.006;2023-08-06T07:38:13;98719.30;;;16.65;76.61
76819;BME280;65772;51.096;17.006;2023-08-06T07:40:46;98716.45;;;16.62;76.52
76819;BME280;65772;51.096;17.006;2023-08-06T07:43:16;98705.30;;;16.58;76.52
76819;BME280;65772;51.096;17.006;2023-08-06T07:45:47;98697.38;;;16.58;76.61
76819;BME280;65772;51.096;17.006;2023-08-06T07:48:17;98690.16;;;16.57;76.66
76819;BME280;65772;51.096;17.006;2023-08-06T07:50:50;98689.33;;;16.55;76.72
76819;BME280;65772;51.096;17.006;2023-08-06T07:53:23;98691.57;;;16.56;76.77
76819;BME280;65772;51.096;17.006;2023-08-06T07:55:56;98691.36;;;16.58;76.82
76819;BME280;65772;51.096;17.006;2023-08-06T07:58:27;98691.67;;;16.59;76.86
76819;BME280;65772;51.096;17.006;2023-08-06T08:00:58;98689.05;;;16.61;76.76
76819;BME280;65772;51.096;17.006;2023-08-06T08:03:33;98680.27;;;16.62;76.72
76819;BME280;65772;51.096;17.006;2023-08-06T08:06:04;98674.41;;;16.61;76.72
76819;BME280;65772;51.096;17.006;2023-08-06T08:08:34;98669.95;;;16.62;76.81
76819;BME280;65772;51.096;17.006;2023-08-06T08:11:08;98664.09;;;16.60;76.82
76819;BME280;65772;51.096;17.006;2023-08-06T08:13:38;98660.13;;;16.60;76.94
76819;BME280;65772;51.096;17.006;2023-08-06T08:16:09;98655.99;;;16.60;76.80
76819;BME280;65772;51.096;17.006;2023-08-06T08:18:39;98655.02;;;16.58;76.70
76819;BME280;65772;51.096;17.006;2023-08-06T08:21:10;98641.77;;;16.57;76.82
76819;BME280;65772;51.096;17.006;2023-08-06T08:23:40;98638.15;;;16.56;76.82
76819;BME280;65772;51.096;17.006;2023-08-06T08:26:12;98626.61;;;16.56;76.89
76819;BME280;65772;51.096;17.006;2023-08-06T08:28:42;98620.76;;;16.56;76.87
76819;BME280;65772;51.096;17.006;2023-08-06T08:31:13;98616.96;;;16.56;76.86
76819;BME280;65772;51.096;17.006;2023-08-06T08:33:45;98620.23;;;16.56;77.07
76819;BME280;65772;51.096;17.006;2023-08-06T08:36:15;98619.02;;;16.57;77.04
76819;BME280;65772;51.096;17.006;2023-08-06T08:38:46;98621.83;;;16.54;76.94
76819;BME280;65772;51.096;17.006;2023-08-06T08:41:16;98618.34;;;16.49;77.01
76819;BME280;65772;51.096;17.006;2023-08-06T08:43:48;98627.51;;;16.47;76.97
76819;BME280;65772;51.096;17.006;2023-08-06T08:46:20;98631.15;;;16.46;77.28
76819;BME280;65772;51.096;17.006;2023-08-06T08:48:51;98634.89;;;16.48;77.32
76819;BME280;65772;51.096;17.006;2023-08-06T08:51:22;98633.85;;;16.49;77.46
76819;BME280;65772;51.096;17.006;2023-08-06T08:53:54;98631.25;;;16.49;77.45
76819;BME280;65772;51.096;17.006;2023-08-06T08:56:26;98631.79;;;16.48;77.45
76819;BME280;65772;51.096;17.006;2023-08-06T08:58:57;98628.61;;;16.52;77.48
76819;BME280;65772;51.096;17.006;2023-08-06T09:01:28;98624.42;;;16.54;77.46
76819;BME280;65772;51.096;17.006;2023-08-06T09:03:59;98621.14;;;16.54;77.33
76819;BME280;65772;51.096;17.006;2023-08-06T09:06:32;98617.03;;;16.54;77.39
76819;BME280;65772;51.096;17.006;2023-08-06T09:09:08;98613.91;;;16.54;77.38
76819;BME280;65772;51.096;17.006;2023-08-06T09:11:42;98614.61;;;16.54;77.29
76819;BME280;65772;51.096;17.006;2023-08-06T09:14:13;98613.91;;;16.54;77.27
76819;BME280;65772;51.096;17.006;2023-08-06T09:16:44;98617.17;;;16.54;77.23
76819;BME280;65772;51.096;17.006;2023-08-06T09:19:15;98612.33;;;16.55;77.31
76819;BME280;65772;51.096;17.006;2023-08-06T09:21:46;98609.88;;;16.58;77.49
76819;BME280;65772;51.096;17.006;2023-08-06T09:24:18;98612.74;;;16.60;77.54
76819;BME280;65772;51.096;17.006;2023-08-06T09:26:49;98607.39;;;16.62;77.50
76819;BME280;65772;51.096;17.006;2023-08-06T09:29:20;98598.70;;;16.64;77.47
76819;BME280;65772;51.096;17.006;2023-08-06T09:31:52;98588.70;;;16.66;77.47
76819;BME280;65772;51.096;17.006;2023-08-06T09:34:23;98586.41;;;16.67;77.40
76819;BME280;65772;51.096;17.006;2023-08-06T09:36:54;98594.50;;;16.68;77.37
76819;BME280;65772;51.096;17.006;2023-08-06T09:39:52;98595.90;;;16.67;77.25
76819;BME280;65772;51.096;17.006;2023-08-06T09:42:24;98593.51;;;16.66;77.32
76819;BME280;65772;51.096;17.006;2023-08-06T09:45:05;98591.83;;;16.64;77.43
76819;BME280;65772;51.096;17.006;2023-08-06T09:47:37;98599.13;;;16.61;77.09
76819;BME280;65772;51.096;17.006;2023-08-06T09:50:16;98597.80;;;16.58;77.30
76819;BME280;65772;51.096;17.006;2023-08-06T09:52:47;98600.75;;;16.57;77.30
76819;BME280;65772;51.096;17.006;2023-08-06T09:55:19;98604.88;;;16.57;77.35
76819;BME280;65772;51.096;17.006;2023-08-06T09:57:52;98611.94;;;16.57;77.30
76819;BME280;65772;51.096;17.006;2023-08-06T10:00:23;98612.11;;;16.57;77.40
76819;BME280;65772;51.096;17.006;2023-08-06T10:02:54;98621.73;;;16.58;77.50
76819;BME280;65772;51.096;17.006;2023-08-06T10:05:32;98631.37;;;16.60;77.60
76819;BME280;65772;51.096;17.006;2023-08-06T10:08:05;98632.30;;;16.56;77.33
76819;BME280;65772;51.096;17.006;2023-08-06T10:10:37;98629.09;;;16.53;77.44
76819;BME280;65772;51.096;17.006;2023-08-06T10:13:09;98627.05;;;16.52;77.70
76819;BME280;65772;51.096;17.006;2023-08-06T10:15:41;98614.41;;;16.55;77.79
76819;BME280;65772;51.096;17.006;2023-08-06T10:18:12;98607.17;;;16.55;77.86
76819;BME280;65772;51.096;17.006;2023-08-06T10:20:47;98600.46;;;16.54;77.87
76819;BME280;65772;51.096;17.006;2023-08-06T10:23:18;98598.54;;;16.56;77.99
76819;BME280;65772;51.096;17.006;2023-08-06T10:25:54;98588.20;;;16.57;78.31
76819;BME280;65772;51.096;17.006;2023-08-06T10:28:35;98582.45;;;16.58;78.49
76819;BME280;65772;51.096;17.006;2023-08-06T10:31:07;98572.42;;;16.61;78.38
76819;BME280;65772;51.096;17.006;2023-08-06T10:33:45;98567.37;;;16.63;78.44
76819;BME280;65772;51.096;17.006;2023-08-06T10:36:16;98570.79;;;16.65;78.35
76819;BME280;65772;51.096;17.006;2023-08-06T10:38:48;98574.38;;;16.66;78.33
76819;BME280;65772;51.096;17.006;2023-08-06T10:41:28;98570.77;;;16.65;78.23
76819;BME280;65772;51.096;17.006;2023-08-06T10:44:08;98567.13;;;16.67;78.27
76819;BME280;65772;51.096;17.006;2023-08-06T10:46:39;98561.27;;;16.67;78.16
76819;BME280;65772;51.096;17.006;2023-08-06T10:49:10;98558.11;;;16.69;78.15
76819;BME280;65772;51.096;17.006;2023-08-06T10:51:42;98553.42;;;16.71;78.15
76819;BME280;65772;51.096;17.006;2023-08-06T10:54:13;98552.88;;;16.72;78.05
76819;BME280;65772;51.096;17.006;2023-08-06T10:56:44;98547.68;;;16.73;78.11
76819;BME280;65772;51.096;17.006;2023-08-06T10:59:18;98543.84;;;16.74;78.13
76819;BME280;65772;51.096;17.006;2023-08-06T11:01:49;98544.70;;;16.75;78.10
76819;BME280;65772;51.096;17.006;2023-08-06T11:04:33;98537.45;;;16.75;77.99
76819;BME280;65772;51.096;17.006;2023-08-06T11:07:09;98531.59;;;16.75;78.09
76819;BME280;65772;51.096;17.006;2023-08-06T11:09:40;98530.03;;;16.75;77.99
76819;BME280;65772;51.096;17.006;2023-08-06T11:12:20;98528.13;;;16.76;78.13
76819;BME280;65772;51.096;17.006;2023-08-06T11:14:54;98524.84;;;16.76;78.06
76819;BME280;65772;51.096;17.006;2023-08-06T11:17:25;98522.98;;;16.75;78.00
76819;BME280;65772;51.096;17.006;2023-08-06T11:19:55;98522.62;;;16.76;78.16
76819;BME280;65772;51.096;17.006;2023-08-06T11:22:27;98522.83;;;16.74;77.97
76819;BME280;65772;51.096;17.006;2023-08-06T11:24:58;98520.95;;;16.74;78.01
76819;BME280;65772;51.096;17.006;2023-08-06T11:27:30;98524.09;;;16.73;77.91
76819;BME280;65772;51.096;17.006;2023-08-06T11:30:01;98518.73;;;16.73;78.08
76819;BME280;65772;51.096;17.006;2023-08-06T11:32:31;98522.30;;;16.75;78.08
76819;BME280;65772;51.096;17.006;2023-08-06T11:35:11;98520.71;;;16.76;78.13
76819;BME280;65772;51.096;17.006;2023-08-06T11:37:45;98522.50;;;16.81;78.20
76819;BME280;65772;51.096;17.006;2023-08-06T11:40:17;98522.59;;;16.84;78.19
76819;BME280;65772;51.096;17.006;2023-08-06T11:42:48;98523.92;;;16.86;78.04
76819;BME280;65772;51.096;17.006;2023-08-06T11:45:25;98523.46;;;16.84;77.81
76819;BME280;65772;51.096;17.006;2023-08-06T11:47:55;98525.34;;;16.84;78.00
76819;BME280;65772;51.096;17.006;2023-08-06T11:50:27;98530.05;;;16.82;78.12
76819;BME280;65772;51.096;17.006;2023-08-06T11:52:59;98528.05;;;16.79;78.16
76819;BME280;65772;51.096;17.006;2023-08-06T11:55:30;98530.14;;;16.78;78.23
76819;BME280;65772;51.096;17.006;2023-08-06T11:58:04;98532.17;;;16.80;78.29
76819;BME280;65772;51.096;17.006;2023-08-06T12:00:35;98530.42;;;16.81;78.33
76819;BME280;65772;51.096;17.006;2023-08-06T12:03:07;98535.23;;;16.82;78.28
76819;BME280;65772;51.096;17.006;2023-08-06T12:05:38;98538.70;;;16.81;78.10
76819;BME280;65772;51.096;17.006;2023-08-06T12:08:10;98542.01;;;16.79;78.14
76819;BME280;65772;51.096;17.006;2023-08-06T12:10:40;98544.58;;;16.80;78.15
76819;BME280;65772;51.096;17.006;2023-08-06T12:13:11;98547.79;;;16.83;78.28
76819;BME280;65772;51.096;17.006;2023-08-06T12:15:42;98557.20;;;16.85;78.24
76819;BME280;65772;51.096;17.006;2023-08-06T12:18:12;98556.61;;;16.88;78.16
76819;BME280;65772;51.096;17.006;2023-08-06T12:20:43;98560.53;;;16.90;78.23
76819;BME280;65772;51.096;17.006;2023-08-06T12:23:13;98559.31;;;16.91;78.23
76819;BME280;65772;51.096;17.006;2023-08-06T12:25:45;98564.80;;;16.92;78.19
76819;BME280;65772;51.096;17.006;2023-08-06T12:28:15;98569.24;;;16.94;78.10
76819;BME280;65772;51.096;17.006;2023-08-06T12:30:46;98573.92;;;16.93;78.08
76819;BME280;65772;51.096;17.006;2023-08-06T12:33:18;98574.63;;;16.92;78.09
76819;BME280;65772;51.096;17.006;2023-08-06T12:35:49;98573.09;;;16.91;77.98
76819;BME280;65772;51.096;17.006;2023-08-06T12:38:22;98577.07;;;16.91;77.93
76819;BME280;65772;51.096;17.006;2023-08-06T12:40:52;98578.30;;;16.89;78.12
76819;BME280;65772;51.096;17.006;2023-08-06T12:43:23;98581.75;;;16.89;78.12
76819;BME280;65772;51.096;17.006;2023-08-06T12:45:53;98583.83;;;16.89;78.03
76819;BME280;65772;51.096;17.006;2023-08-06T12:48:24;98589.20;;;16.88;78.21
76819;BME280;65772;51.096;17.006;2023-08-06T12:50:55;98592.33;;;16.87;78.04
76819;BME280;65772;51.096;17.006;2023-08-06T12:53:25;98598.98;;;16.89;78.07
76819;BME280;65772;51.096;17.006;2023-08-06T12:55:56;98598.05;;;16.92;78.19
76819;BME280;65772;51.096;17.006;2023-08-06T12:58:26;98600.05;;;16.95;78.06
76819;BME280;65772;51.096;17.006;2023-08-06T13:00:57;98595.67;;;16.97;78.12
76819;BME280;65772;51.096;17.006;2023-08-06T13:03:27;98599.23;;;17.00;78.17
76819;BME280;65772;51.096;17.006;2023-08-06T13:06:01;98600.55;;;17.03;78.12
76819;BME280;65772;51.096;17.006;2023-08-06T13:08:32;98605.97;;;17.06;78.30
76819;BME280;65772;51.096;17.006;2023-08-06T13:11:02;98613.48;;;17.10;78.12
76819;BME280;65772;51.096;17.006;2023-08-06T13:13:33;98614.76;;;17.14;78.05